sensor_id;sensor_type;location;lat;lon;timestamp;P1;durP1;ratioP1;P2;durP2;ratioP2
3433;SDS011;1730;41.932;25.548;2023-07-29T00:00:47;6.57;;;4.57;;
3433;SDS011;1730;41.932;25.548;2023-07-29T00:03:13;4.73;;;4.33;;
3433;SDS011;1730;41.932;25.548;2023-07-29T00:05:38;5.20;;;4.80;;
3433;SDS011;1730;41.932;25.548;2023-07-29T00:08:04;5.03;;;4.63;;
3433;SDS011;1730;41.932;25.548;2023-07-29T00:10:35;5.50;;;5.10;;
3433;SDS011;1730;41.932;25.548;2023-07-29T00:13:02;6.57;;;5.00;;
3433;SDS011;1730;41.932;25.548;2023-07-29T00:15:28;5.03;;;4.73;;
3433;SDS011;1730;41.932;25.548;2023-07-29T00:17:53;6.30;;;4.90;;
3433;SDS011;1730;41.932;25.548;2023-07-29T00:20:19;6.53;;;5.00;;
3433;SDS011;1730;41.932;25.548;2023-07-29T00:22:44;7.57;;;5.40;;
3433;SDS011;1730;41.932;25.548;2023-07-29T00:25:10;5.13;;;4.83;;
3433;SDS011;1730;41.932;25.548;2023-07-29T00:27:36;6.00;;;5.30;;
3433;SDS011;1730;41.932;25.548;2023-07-29T00:30:01;5.50;;;5.00;;
3433;SDS011;1730;41.932;25.548;2023-07-29T00:32:28;6.90;;;4.77;;
3433;SDS011;1730;41.932;25.548;2023-07-29T00:34:54;10.97;;;4.17;;
3433;SDS011;1730;41.932;25.548;2023-07-29T00:37:20;3.47;;;3.07;;
3433;SDS011;1730;41.932;25.548;2023-07-29T00:39:46;3.90;;;2.97;;
3433;SDS011;1730;41.932;25.548;2023-07-29T00:42:11;5.30;;;3.37;;
3433;SDS011;1730;41.932;25.548;2023-07-29T00:44:37;4.73;;;3.50;;
3433;SDS011;1730;41.932;25.548;2023-07-29T00:47:03;3.37;;;3.03;;
3433;SDS011;1730;41.932;25.548;2023-07-29T00:49:30;3.60;;;3.30;;
3433;SDS011;1730;41.932;25.548;2023-07-29T00:51:57;5.60;;;3.40;;
3433;SDS011;1730;41.932;25.548;2023-07-29T00:54:23;4.63;;;3.80;;
3433;SDS011;1730;41.932;25.548;2023-07-29T00:56:48;5.73;;;3.53;;
3433;SDS011;1730;41.932;25.548;2023-07-29T00:59:14;3.50;;;3.20;;
3433;SDS011;1730;41.932;25.548;2023-07-29T01:01:40;5.73;;;4.10;;
3433;SDS011;1730;41.932;25.548;2023-07-29T01:04:06;6.23;;;5.30;;
3433;SDS011;1730;41.932;25.548;2023-07-29T01:09:36;5.43;;;4.93;;
3433;SDS011;1730;41.932;25.548;2023-07-29T01:15:21;4.77;;;4.47;;
3433;SDS011;1730;41.932;25.548;2023-07-29T01:17:59;5.40;;;5.10;;
3433;SDS011;1730;41.932;25.548;2023-07-29T01:20:30;5.47;;;5.17;;
3433;SDS011;1730;41.932;25.548;2023-07-29T01:22:58;6.37;;;5.77;;
3433;SDS011;1730;41.932;25.548;2023-07-29T01:25:24;6.47;;;5.87;;
3433;SDS011;1730;41.932;25.548;2023-07-29T01:27:49;6.30;;;5.80;;
3433;SDS011;1730;41.932;25.548;2023-07-29T01:30:17;5.90;;;5.50;;
3433;SDS011;1730;41.932;25.548;2023-07-29T01:35:18;6.53;;;6.07;;
3433;SDS011;1730;41.932;25.548;2023-07-29T01:37:49;5.97;;;5.57;;
3433;SDS011;1730;41.932;25.548;2023-07-29T01:40:20;6.87;;;6.27;;
3433;SDS011;1730;41.932;25.548;2023-07-29T01:42:48;5.90;;;5.50;;
3433;SDS011;1730;41.932;25.548;2023-07-29T01:45:14;7.33;;;6.60;;
3433;SDS011;1730;41.932;25.548;2023-07-29T01:47:40;6.40;;;5.77;;
3433;SDS011;1730;41.932;25.548;2023-07-29T01:50:06;6.87;;;6.17;;
3433;SDS011;1730;41.932;25.548;2023-07-29T01:52:33;6.60;;;6.10;;
3433;SDS011;1730;41.932;25.548;2023-07-29T01:54:58;6.97;;;6.40;;
3433;SDS011;1730;41.932;25.548;2023-07-29T01:57:24;6.97;;;6.10;;
3433;SDS011;1730;41.932;25.548;2023-07-29T01:59:49;6.73;;;6.23;;
3433;SDS011;1730;41.932;25.548;2023-07-29T02:02:15;6.97;;;6.50;;
3433;SDS011;1730;41.932;25.548;2023-07-29T02:04:40;6.30;;;5.80;;
3433;SDS011;1730;41.932;25.548;2023-07-29T02:07:06;6.90;;;6.23;;
3433;SDS011;1730;41.932;25.548;2023-07-29T02:09:33;7.00;;;6.60;;
3433;SDS011;1730;41.932;25.548;2023-07-29T02:11:58;8.60;;;6.10;;
3433;SDS011;1730;41.932;25.548;2023-07-29T02:14:24;6.90;;;6.37;;
3433;SDS011;1730;41.932;25.548;2023-07-29T02:16:50;6.77;;;5.77;;
3433;SDS011;1730;41.932;25.548;2023-07-29T02:19:15;7.20;;;6.57;;
3433;SDS011;1730;41.932;25.548;2023-07-29T02:21:41;6.40;;;5.60;;
3433;SDS011;1730;41.932;25.548;2023-07-29T02:24:06;6.60;;;6.00;;
3433;SDS011;1730;41.932;25.548;2023-07-29T02:26:32;6.80;;;6.30;;
3433;SDS011;1730;41.932;25.548;2023-07-29T02:28:58;6.90;;;6.50;;
3433;SDS011;1730;41.932;25.548;2023-07-29T02:31:24;8.07;;;7.50;;
3433;SDS011;1730;41.932;25.548;2023-07-29T02:33:51;7.07;;;6.40;;
3433;SDS011;1730;41.932;25.548;2023-07-29T02:36:17;6.70;;;6.20;;
3433;SDS011;1730;41.932;25.548;2023-07-29T02:38:43;6.20;;;5.90;;
3433;SDS011;1730;41.932;25.548;2023-07-29T02:41:09;7.27;;;6.77;;
3433;SDS011;1730;41.932;25.548;2023-07-29T02:43:37;6.50;;;6.00;;
3433;SDS011;1730;41.932;25.548;2023-07-29T02:46:02;7.57;;;6.97;;
3433;SDS011;1730;41.932;25.548;2023-07-29T02:48:29;7.60;;;7.00;;
3433;SDS011;1730;41.932;25.548;2023-07-29T02:50:55;6.60;;;6.23;;
3433;SDS011;1730;41.932;25.548;2023-07-29T02:53:24;7.40;;;6.90;;
3433;SDS011;1730;41.932;25.548;2023-07-29T02:55:50;8.50;;;7.33;;
3433;SDS011;1730;41.932;25.548;2023-07-29T02:58:16;7.27;;;6.77;;
3433;SDS011;1730;41.932;25.548;2023-07-29T03:00:42;8.40;;;7.83;;
3433;SDS011;1730;41.932;25.548;2023-07-29T03:03:09;7.30;;;6.60;;
3433;SDS011;1730;41.932;25.548;2023-07-29T03:05:35;9.70;;;7.53;;
3433;SDS011;1730;41.932;25.548;2023-07-29T03:08:00;6.80;;;6.30;;
3433;SDS011;1730;41.932;25.548;2023-07-29T03:10:26;6.93;;;6.53;;
3433;SDS011;1730;41.932;25.548;2023-07-29T03:12:55;7.20;;;6.60;;
3433;SDS011;1730;41.932;25.548;2023-07-29T03:15:24;7.80;;;7.20;;
3433;SDS011;1730;41.932;25.548;2023-07-29T03:17:50;7.40;;;6.90;;
3433;SDS011;1730;41.932;25.548;2023-07-29T03:20:16;7.70;;;7.27;;
3433;SDS011;1730;41.932;25.548;2023-07-29T03:22:43;7.23;;;6.83;;
3433;SDS011;1730;41.932;25.548;2023-07-29T03:25:09;7.80;;;7.17;;
3433;SDS011;1730;41.932;25.548;2023-07-29T03:27:34;7.53;;;6.93;;
3433;SDS011;1730;41.932;25.548;2023-07-29T03:30:02;7.57;;;7.10;;
3433;SDS011;1730;41.932;25.548;2023-07-29T03:32:28;6.70;;;6.30;;
3433;SDS011;1730;41.932;25.548;2023-07-29T03:34:54;8.40;;;7.80;;
3433;SDS011;1730;41.932;25.548;2023-07-29T03:37:20;8.20;;;7.00;;
3433;SDS011;1730;41.932;25.548;2023-07-29T03:39:46;7.37;;;6.80;;
3433;SDS011;1730;41.932;25.548;2023-07-29T03:42:12;9.17;;;8.40;;
3433;SDS011;1730;41.932;25.548;2023-07-29T03:44:38;7.00;;;6.40;;
3433;SDS011;1730;41.932;25.548;2023-07-29T03:47:05;7.63;;;7.20;;
3433;SDS011;1730;41.932;25.548;2023-07-29T03:49:31;8.40;;;6.80;;
3433;SDS011;1730;41.932;25.548;2023-07-29T03:51:57;9.67;;;6.70;;
3433;SDS011;1730;41.932;25.548;2023-07-29T03:54:22;6.73;;;6.10;;
3433;SDS011;1730;41.932;25.548;2023-07-29T03:56:48;5.83;;;5.53;;
3433;SDS011;1730;41.932;25.548;2023-07-29T03:59:14;7.10;;;6.60;;
3433;SDS011;1730;41.932;25.548;2023-07-29T04:01:39;6.10;;;5.53;;
3433;SDS011;1730;41.932;25.548;2023-07-29T04:04:05;5.50;;;5.20;;
3433;SDS011;1730;41.932;25.548;2023-07-29T04:06:30;5.80;;;5.40;;
3433;SDS011;1730;41.932;25.548;2023-07-29T04:08:57;6.70;;;6.10;;
3433;SDS011;1730;41.932;25.548;2023-07-29T04:11:23;6.90;;;5.40;;
3433;SDS011;1730;41.932;25.548;2023-07-29T04:13:48;6.00;;;5.60;;
3433;SDS011;1730;41.932;25.548;2023-07-29T04:16:14;6.43;;;5.47;;
3433;SDS011;1730;41.932;25.548;2023-07-29T04:18:40;6.23;;;5.73;;
3433;SDS011;1730;41.932;25.548;2023-07-29T04:21:05;6.57;;;6.07;;
3433;SDS011;1730;41.932;25.548;2023-07-29T04:23:31;6.30;;;5.80;;
3433;SDS011;1730;41.932;25.548;2023-07-29T04:25:56;6.33;;;5.83;;
3433;SDS011;1730;41.932;25.548;2023-07-29T04:28:22;5.97;;;5.50;;
3433;SDS011;1730;41.932;25.548;2023-07-29T04:30:47;8.50;;;5.70;;
3433;SDS011;1730;41.932;25.548;2023-07-29T04:33:14;6.93;;;4.97;;
3433;SDS011;1730;41.932;25.548;2023-07-29T04:35:39;5.23;;;4.93;;
3433;SDS011;1730;41.932;25.548;2023-07-29T04:38:04;5.70;;;5.30;;
3433;SDS011;1730;41.932;25.548;2023-07-29T04:40:32;5.67;;;4.83;;
3433;SDS011;1730;41.932;25.548;2023-07-29T04:43:00;5.27;;;4.90;;
3433;SDS011;1730;41.932;25.548;2023-07-29T04:45:29;6.00;;;5.50;;
3433;SDS011;1730;41.932;25.548;2023-07-29T04:47:55;13.37;;;4.77;;
3433;SDS011;1730;41.932;25.548;2023-07-29T04:50:21;5.23;;;4.73;;
3433;SDS011;1730;41.932;25.548;2023-07-29T04:52:48;5.23;;;4.73;;
3433;SDS011;1730;41.932;25.548;2023-07-29T04:55:13;10.47;;;4.40;;
3433;SDS011;1730;41.932;25.548;2023-07-29T04:57:39;4.87;;;4.47;;
3433;SDS011;1730;41.932;25.548;2023-07-29T05:00:04;4.90;;;4.50;;
3433;SDS011;1730;41.932;25.548;2023-07-29T05:02:30;6.50;;;4.07;;
3433;SDS011;1730;41.932;25.548;2023-07-29T05:04:56;9.80;;;4.17;;
3433;SDS011;1730;41.932;25.548;2023-07-29T05:07:21;4.60;;;4.23;;
3433;SDS011;1730;41.932;25.548;2023-07-29T05:09:47;4.63;;;4.23;;
3433;SDS011;1730;41.932;25.548;2023-07-29T05:12:13;9.80;;;4.70;;
3433;SDS011;1730;41.932;25.548;2023-07-29T05:14:38;5.10;;;4.13;;
3433;SDS011;1730;41.932;25.548;2023-07-29T05:17:05;10.07;;;4.97;;
3433;SDS011;1730;41.932;25.548;2023-07-29T05:19:31;4.30;;;3.90;;
3433;SDS011;1730;41.932;25.548;2023-07-29T05:21:56;7.40;;;3.53;;
3433;SDS011;1730;41.932;25.548;2023-07-29T05:24:22;10.20;;;4.00;;
3433;SDS011;1730;41.932;25.548;2023-07-29T05:26:48;14.83;;;4.17;;
3433;SDS011;1730;41.932;25.548;2023-07-29T05:29:14;7.60;;;3.17;;
3433;SDS011;1730;41.932;25.548;2023-07-29T05:31:40;3.67;;;3.37;;
3433;SDS011;1730;41.932;25.548;2023-07-29T05:34:05;4.53;;;3.43;;
3433;SDS011;1730;41.932;25.548;2023-07-29T05:36:31;3.70;;;3.40;;
3433;SDS011;1730;41.932;25.548;2023-07-29T05:38:56;4.03;;;3.50;;
3433;SDS011;1730;41.932;25.548;2023-07-29T05:41:22;5.10;;;3.87;;
3433;SDS011;1730;41.932;25.548;2023-07-29T05:43:47;4.63;;;4.30;;
3433;SDS011;1730;41.932;25.548;2023-07-29T05:46:13;6.00;;;5.33;;
3433;SDS011;1730;41.932;25.548;2023-07-29T05:48:38;5.17;;;4.63;;
3433;SDS011;1730;41.932;25.548;2023-07-29T05:51:04;4.43;;;4.13;;
3433;SDS011;1730;41.932;25.548;2023-07-29T05:53:32;7.53;;;4.43;;
3433;SDS011;1730;41.932;25.548;2023-07-29T05:55:57;4.80;;;4.50;;
3433;SDS011;1730;41.932;25.548;2023-07-29T05:58:23;5.23;;;4.10;;
3433;SDS011;1730;41.932;25.548;2023-07-29T06:00:48;6.90;;;4.50;;
3433;SDS011;1730;41.932;25.548;2023-07-29T06:03:14;10.97;;;5.03;;
3433;SDS011;1730;41.932;25.548;2023-07-29T06:05:39;4.10;;;3.80;;
3433;SDS011;1730;41.932;25.548;2023-07-29T06:08:05;5.20;;;3.60;;
3433;SDS011;1730;41.932;25.548;2023-07-29T06:10:30;4.50;;;3.67;;
3433;SDS011;1730;41.932;25.548;2023-07-29T06:12:56;8.27;;;3.83;;
3433;SDS011;1730;41.932;25.548;2023-07-29T06:15:21;4.20;;;3.90;;
3433;SDS011;1730;41.932;25.548;2023-07-29T06:17:48;11.60;;;4.20;;
3433;SDS011;1730;41.932;25.548;2023-07-29T06:20:14;8.33;;;3.77;;
3433;SDS011;1730;41.932;25.548;2023-07-29T06:22:39;4.93;;;3.80;;
3433;SDS011;1730;41.932;25.548;2023-07-29T06:25:06;14.43;;;3.90;;
3433;SDS011;1730;41.932;25.548;2023-07-29T06:27:31;5.67;;;3.97;;
3433;SDS011;1730;41.932;25.548;2023-07-29T06:29:57;6.17;;;2.70;;
3433;SDS011;1730;41.932;25.548;2023-07-29T06:32:22;5.40;;;3.13;;
3433;SDS011;1730;41.932;25.548;2023-07-29T06:34:48;3.80;;;2.80;;
3433;SDS011;1730;41.932;25.548;2023-07-29T06:37:13;3.93;;;2.90;;
3433;SDS011;1730;41.932;25.548;2023-07-29T06:39:39;4.70;;;2.70;;
3433;SDS011;1730;41.932;25.548;2023-07-29T06:42:04;4.40;;;3.10;;
3433;SDS011;1730;41.932;25.548;2023-07-29T06:44:30;4.50;;;4.07;;
3433;SDS011;1730;41.932;25.548;2023-07-29T06:46:57;3.47;;;3.17;;
3433;SDS011;1730;41.932;25.548;2023-07-29T06:49:23;4.13;;;3.10;;
3433;SDS011;1730;41.932;25.548;2023-07-29T06:51:48;3.47;;;2.80;;
3433;SDS011;1730;41.932;25.548;2023-07-29T06:54:15;3.23;;;3.00;;
3433;SDS011;1730;41.932;25.548;2023-07-29T06:56:41;3.53;;;3.10;;
3433;SDS011;1730;41.932;25.548;2023-07-29T06:59:07;2.80;;;2.70;;
3433;SDS011;1730;41.932;25.548;2023-07-29T07:01:33;3.90;;;3.13;;
3433;SDS011;1730;41.932;25.548;2023-07-29T07:03:59;3.33;;;2.87;;
3433;SDS011;1730;41.932;25.548;2023-07-29T07:06:24;6.23;;;2.50;;
3433;SDS011;1730;41.932;25.548;2023-07-29T07:08:50;3.90;;;2.60;;
3433;SDS011;1730;41.932;25.548;2023-07-29T07:11:16;3.40;;;2.90;;
3433;SDS011;1730;41.932;25.548;2023-07-29T07:13:43;6.23;;;2.70;;
3433;SDS011;1730;41.932;25.548;2023-07-29T07:16:09;4.00;;;3.20;;
3433;SDS011;1730;41.932;25.548;2023-07-29T07:18:34;3.43;;;3.13;;
3433;SDS011;1730;41.932;25.548;2023-07-29T07:21:00;9.73;;;3.13;;
3433;SDS011;1730;41.932;25.548;2023-07-29T07:23:25;3.33;;;3.00;;
3433;SDS011;1730;41.932;25.548;2023-07-29T07:25:51;8.80;;;3.20;;
3433;SDS011;1730;41.932;25.548;2023-07-29T07:28:16;6.00;;;2.73;;
3433;SDS011;1730;41.932;25.548;2023-07-29T07:30:42;3.00;;;2.73;;
3433;SDS011;1730;41.932;25.548;2023-07-29T07:33:08;3.50;;;3.17;;
3433;SDS011;1730;41.932;25.548;2023-07-29T07:35:33;3.10;;;2.90;;
3433;SDS011;1730;41.932;25.548;2023-07-29T07:38:00;3.83;;;2.53;;
3433;SDS011;1730;41.932;25.548;2023-07-29T07:40:28;3.60;;;3.30;;
3433;SDS011;1730;41.932;25.548;2023-07-29T07:42:55;2.63;;;2.40;;
3433;SDS011;1730;41.932;25.548;2023-07-29T07:45:20;4.50;;;2.70;;
3433;SDS011;1730;41.932;25.548;2023-07-29T07:47:46;3.10;;;2.80;;
3433;SDS011;1730;41.932;25.548;2023-07-29T07:50:11;2.67;;;2.40;;
3433;SDS011;1730;41.932;25.548;2023-07-29T07:52:37;3.30;;;3.00;;
3433;SDS011;1730;41.932;25.548;2023-07-29T07:55:02;3.10;;;2.80;;
3433;SDS011;1730;41.932;25.548;2023-07-29T07:57:28;4.83;;;2.83;;
3433;SDS011;1730;41.932;25.548;2023-07-29T07:59:53;4.80;;;3.13;;
3433;SDS011;1730;41.932;25.548;2023-07-29T08:02:19;3.33;;;2.70;;
3433;SDS011;1730;41.932;25.548;2023-07-29T08:04:45;4.50;;;2.53;;
3433;SDS011;1730;41.932;25.548;2023-07-29T08:07:11;3.40;;;3.10;;
3433;SDS011;1730;41.932;25.548;2023-07-29T08:09:36;3.03;;;2.73;;
3433;SDS011;1730;41.932;25.548;2023-07-29T08:12:02;2.73;;;2.50;;
3433;SDS011;1730;41.932;25.548;2023-07-29T08:14:27;3.33;;;2.93;;
3433;SDS011;1730;41.932;25.548;2023-07-29T08:16:53;3.20;;;3.00;;
3433;SDS011;1730;41.932;25.548;2023-07-29T08:19:18;5.60;;;3.00;;
3433;SDS011;1730;41.932;25.548;2023-07-29T08:21:43;3.40;;;3.10;;
3433;SDS011;1730;41.932;25.548;2023-07-29T08:24:09;5.90;;;3.90;;
3433;SDS011;1730;41.932;25.548;2023-07-29T08:26:35;5.87;;;2.73;;
3433;SDS011;1730;41.932;25.548;2023-07-29T08:29:00;4.50;;;2.70;;
3433;SDS011;1730;41.932;25.548;2023-07-29T08:31:26;3.03;;;2.83;;
3433;SDS011;1730;41.932;25.548;2023-07-29T08:33:51;5.83;;;2.83;;
3433;SDS011;1730;41.932;25.548;2023-07-29T08:36:17;3.87;;;2.77;;
3433;SDS011;1730;41.932;25.548;2023-07-29T08:38:42;3.00;;;2.70;;
3433;SDS011;1730;41.932;25.548;2023-07-29T08:43:52;5.37;;;2.50;;
3433;SDS011;1730;41.932;25.548;2023-07-29T08:46:38;3.13;;;2.60;;
3433;SDS011;1730;41.932;25.548;2023-07-29T08:49:04;4.63;;;2.70;;
3433;SDS011;1730;41.932;25.548;2023-07-29T08:51:30;4.30;;;2.50;;
3433;SDS011;1730;41.932;25.548;2023-07-29T08:53:57;5.17;;;2.93;;
3433;SDS011;1730;41.932;25.548;2023-07-29T08:56:24;8.33;;;3.37;;
3433;SDS011;1730;41.932;25.548;2023-07-29T08:58:50;11.07;;;2.53;;
3433;SDS011;1730;41.932;25.548;2023-07-29T09:01:17;2.37;;;2.20;;
3433;SDS011;1730;41.932;25.548;2023-07-29T09:03:43;4.83;;;2.90;;
3433;SDS011;1730;41.932;25.548;2023-07-29T09:06:08;2.80;;;2.60;;
3433;SDS011;1730;41.932;25.548;2023-07-29T09:08:34;2.67;;;2.47;;
3433;SDS011;1730;41.932;25.548;2023-07-29T09:11:00;4.00;;;2.43;;
3433;SDS011;1730;41.932;25.548;2023-07-29T09:13:27;7.53;;;2.57;;
3433;SDS011;1730;41.932;25.548;2023-07-29T09:15:54;2.90;;;2.70;;
3433;SDS011;1730;41.932;25.548;2023-07-29T09:18:21;10.80;;;2.57;;
3433;SDS011;1730;41.932;25.548;2023-07-29T09:20:47;5.27;;;2.00;;
3433;SDS011;1730;41.932;25.548;2023-07-29T09:23:14;3.37;;;2.80;;
3433;SDS011;1730;41.932;25.548;2023-07-29T09:25:40;2.77;;;2.50;;
3433;SDS011;1730;41.932;25.548;2023-07-29T09:28:10;5.23;;;2.57;;
3433;SDS011;1730;41.932;25.548;2023-07-29T09:30:38;5.27;;;2.33;;
3433;SDS011;1730;41.932;25.548;2023-07-29T09:33:05;4.67;;;2.30;;
3433;SDS011;1730;41.932;25.548;2023-07-29T09:35:33;6.93;;;3.07;;
3433;SDS011;1730;41.932;25.548;2023-07-29T09:37:59;2.70;;;2.40;;
3433;SDS011;1730;41.932;25.548;2023-07-29T09:40:25;6.40;;;2.90;;
3433;SDS011;1730;41.932;25.548;2023-07-29T09:42:52;2.77;;;2.57;;
3433;SDS011;1730;41.932;25.548;2023-07-29T09:45:26;3.50;;;2.30;;
3433;SDS011;1730;41.932;25.548;2023-07-29T09:47:56;2.37;;;2.27;;
3433;SDS011;1730;41.932;25.548;2023-07-29T09:50:26;2.67;;;2.47;;
3433;SDS011;1730;41.932;25.548;2023-07-29T09:52:53;2.83;;;2.23;;
3433;SDS011;1730;41.932;25.548;2023-07-29T09:55:24;3.00;;;2.80;;
3433;SDS011;1730;41.932;25.548;2023-07-29T09:57:56;6.10;;;2.40;;
3433;SDS011;1730;41.932;25.548;2023-07-29T10:00:30;5.40;;;2.70;;
3433;SDS011;1730;41.932;25.548;2023-07-29T10:02:57;2.27;;;2.17;;
3433;SDS011;1730;41.932;25.548;2023-07-29T10:05:25;2.40;;;2.20;;
3433;SDS011;1730;41.932;25.548;2023-07-29T10:07:51;6.13;;;2.30;;
3433;SDS011;1730;41.932;25.548;2023-07-29T10:10:18;5.60;;;2.10;;
3433;SDS011;1730;41.932;25.548;2023-07-29T10:12:45;2.37;;;2.20;;
3433;SDS011;1730;41.932;25.548;2023-07-29T10:15:11;3.10;;;2.20;;
3433;SDS011;1730;41.932;25.548;2023-07-29T10:17:38;2.43;;;2.23;;
3433;SDS011;1730;41.932;25.548;2023-07-29T10:20:05;4.70;;;2.33;;
3433;SDS011;1730;41.932;25.548;2023-07-29T10:22:38;2.67;;;1.83;;
3433;SDS011;1730;41.932;25.548;2023-07-29T10:25:07;2.90;;;2.20;;
3433;SDS011;1730;41.932;25.548;2023-07-29T10:27:35;2.40;;;2.20;;
3433;SDS011;1730;41.932;25.548;2023-07-29T10:30:08;3.80;;;1.77;;
3433;SDS011;1730;41.932;25.548;2023-07-29T10:32:35;2.70;;;2.50;;
3433;SDS011;1730;41.932;25.548;2023-07-29T10:35:03;2.40;;;2.30;;
3433;SDS011;1730;41.932;25.548;2023-07-29T10:37:29;2.37;;;2.10;;
3433;SDS011;1730;41.932;25.548;2023-07-29T10:39:54;2.10;;;2.00;;
3433;SDS011;1730;41.932;25.548;2023-07-29T10:42:21;3.00;;;2.80;;
3433;SDS011;1730;41.932;25.548;2023-07-29T10:44:47;3.10;;;2.13;;
3433;SDS011;1730;41.932;25.548;2023-07-29T10:47:24;9.97;;;2.80;;
3433;SDS011;1730;41.932;25.548;2023-07-29T10:50:16;2.03;;;1.93;;
3433;SDS011;1730;41.932;25.548;2023-07-29T10:52:43;6.60;;;2.50;;
3433;SDS011;1730;41.932;25.548;2023-07-29T10:55:23;6.70;;;2.30;;
3433;SDS011;1730;41.932;25.548;2023-07-29T11:00:41;2.17;;;2.00;;
3433;SDS011;1730;41.932;25.548;2023-07-29T11:03:08;2.00;;;1.90;;
3433;SDS011;1730;41.932;25.548;2023-07-29T11:05:50;1.90;;;1.80;;
3433;SDS011;1730;41.932;25.548;2023-07-29T11:13:27;1.80;;;1.70;;
3433;SDS011;1730;41.932;25.548;2023-07-29T11:15:57;4.40;;;1.60;;
3433;SDS011;1730;41.932;25.548;2023-07-29T11:18:28;2.20;;;1.90;;
3433;SDS011;1730;41.932;25.548;2023-07-29T11:20:55;2.17;;;2.03;;
3433;SDS011;1730;41.932;25.548;2023-07-29T11:23:29;2.17;;;1.93;;
3433;SDS011;1730;41.932;25.548;2023-07-29T11:26:01;3.60;;;1.93;;
3433;SDS011;1730;41.932;25.548;2023-07-29T11:28:37;5.47;;;1.97;;
3433;SDS011;1730;41.932;25.548;2023-07-29T11:31:03;2.10;;;2.00;;
3433;SDS011;1730;41.932;25.548;2023-07-29T11:33:29;1.80;;;1.70;;
3433;SDS011;1730;41.932;25.548;2023-07-29T11:35:55;1.77;;;1.67;;
3433;SDS011;1730;41.932;25.548;2023-07-29T11:38:21;2.03;;;1.80;;
3433;SDS011;1730;41.932;25.548;2023-07-29T11:43:21;1.83;;;1.73;;
3433;SDS011;1730;41.932;25.548;2023-07-29T11:45:46;1.50;;;1.40;;
3433;SDS011;1730;41.932;25.548;2023-07-29T11:48:12;1.80;;;1.70;;
3433;SDS011;1730;41.932;25.548;2023-07-29T11:50:37;1.90;;;1.80;;
3433;SDS011;1730;41.932;25.548;2023-07-29T11:53:02;2.23;;;2.03;;
3433;SDS011;1730;41.932;25.548;2023-07-29T11:55:28;1.67;;;1.57;;
3433;SDS011;1730;41.932;25.548;2023-07-29T11:57:54;3.80;;;1.80;;
3433;SDS011;1730;41.932;25.548;2023-07-29T12:00:20;2.30;;;2.10;;
3433;SDS011;1730;41.932;25.548;2023-07-29T12:02:46;4.30;;;1.80;;
3433;SDS011;1730;41.932;25.548;2023-07-29T12:05:14;1.80;;;1.70;;
3433;SDS011;1730;41.932;25.548;2023-07-29T12:07:41;1.73;;;1.50;;
3433;SDS011;1730;41.932;25.548;2023-07-29T12:10:08;4.30;;;1.60;;
3433;SDS011;1730;41.932;25.548;2023-07-29T12:12:38;2.10;;;1.90;;
3433;SDS011;1730;41.932;25.548;2023-07-29T12:15:09;2.53;;;1.83;;
3433;SDS011;1730;41.932;25.548;2023-07-29T12:17:42;3.30;;;2.00;;
3433;SDS011;1730;41.932;25.548;2023-07-29T12:20:09;1.80;;;1.70;;
3433;SDS011;1730;41.932;25.548;2023-07-29T12:22:35;3.07;;;1.73;;
3433;SDS011;1730;41.932;25.548;2023-07-29T12:25:02;2.97;;;1.90;;
3433;SDS011;1730;41.932;25.548;2023-07-29T12:27:29;2.83;;;1.73;;
3433;SDS011;1730;41.932;25.548;2023-07-29T12:29:56;2.80;;;2.20;;
3433;SDS011;1730;41.932;25.548;2023-07-29T12:32:24;1.80;;;1.70;;
3433;SDS011;1730;41.932;25.548;2023-07-29T12:34:53;1.30;;;1.20;;
3433;SDS011;1730;41.932;25.548;2023-07-29T12:37:19;1.60;;;1.50;;
3433;SDS011;1730;41.932;25.548;2023-07-29T12:39:44;1.60;;;1.50;;
3433;SDS011;1730;41.932;25.548;2023-07-29T12:42:10;4.97;;;1.80;;
3433;SDS011;1730;41.932;25.548;2023-07-29T12:44:36;2.67;;;1.80;;
3433;SDS011;1730;41.932;25.548;2023-07-29T12:47:03;4.43;;;1.80;;
3433;SDS011;1730;41.932;25.548;2023-07-29T12:49:30;4.33;;;2.10;;
3433;SDS011;1730;41.932;25.548;2023-07-29T12:52:00;1.97;;;1.63;;
3433;SDS011;1730;41.932;25.548;2023-07-29T12:54:25;2.10;;;1.90;;
3433;SDS011;1730;41.932;25.548;2023-07-29T12:56:51;6.70;;;1.90;;
3433;SDS011;1730;41.932;25.548;2023-07-29T12:59:16;1.87;;;1.77;;
3433;SDS011;1730;41.932;25.548;2023-07-29T13:01:42;2.00;;;1.90;;
3433;SDS011;1730;41.932;25.548;2023-07-29T13:04:09;2.07;;;1.87;;
3433;SDS011;1730;41.932;25.548;2023-07-29T13:06:35;3.53;;;1.57;;
3433;SDS011;1730;41.932;25.548;2023-07-29T13:09:00;2.03;;;1.50;;
3433;SDS011;1730;41.932;25.548;2023-07-29T13:11:25;1.97;;;1.87;;
3433;SDS011;1730;41.932;25.548;2023-07-29T13:13:51;3.43;;;1.60;;
3433;SDS011;1730;41.932;25.548;2023-07-29T13:16:16;2.03;;;1.80;;
3433;SDS011;1730;41.932;25.548;2023-07-29T13:18:43;2.40;;;2.20;;
3433;SDS011;1730;41.932;25.548;2023-07-29T13:21:08;2.63;;;2.43;;
3433;SDS011;1730;41.932;25.548;2023-07-29T13:23:34;2.03;;;1.93;;
3433;SDS011;1730;41.932;25.548;2023-07-29T13:26:00;1.67;;;1.57;;
3433;SDS011;1730;41.932;25.548;2023-07-29T13:28:26;3.60;;;2.07;;
3433;SDS011;1730;41.932;25.548;2023-07-29T13:30:51;2.23;;;2.03;;
3433;SDS011;1730;41.932;25.548;2023-07-29T13:33:17;2.53;;;2.33;;
3433;SDS011;1730;41.932;25.548;2023-07-29T13:35:44;2.77;;;2.57;;
3433;SDS011;1730;41.932;25.548;2023-07-29T13:38:09;2.50;;;2.30;;
3433;SDS011;1730;41.932;25.548;2023-07-29T13:40:36;3.30;;;2.20;;
3433;SDS011;1730;41.932;25.548;2023-07-29T13:43:01;3.40;;;2.27;;
3433;SDS011;1730;41.932;25.548;2023-07-29T13:45:27;2.80;;;2.60;;
3433;SDS011;1730;41.932;25.548;2023-07-29T13:47:53;3.13;;;2.93;;
3433;SDS011;1730;41.932;25.548;2023-07-29T13:50:18;2.93;;;2.73;;
3433;SDS011;1730;41.932;25.548;2023-07-29T13:52:44;2.97;;;2.77;;
3433;SDS011;1730;41.932;25.548;2023-07-29T13:55:09;3.63;;;2.50;;
3433;SDS011;1730;41.932;25.548;2023-07-29T13:57:36;1.83;;;1.70;;
3433;SDS011;1730;41.932;25.548;2023-07-29T14:00:02;1.50;;;1.40;;
3433;SDS011;1730;41.932;25.548;2023-07-29T14:02:28;1.60;;;1.50;;
3433;SDS011;1730;41.932;25.548;2023-07-29T14:04:56;2.07;;;1.97;;
3433;SDS011;1730;41.932;25.548;2023-07-29T14:07:21;2.07;;;1.80;;
3433;SDS011;1730;41.932;25.548;2023-07-29T14:09:47;1.73;;;1.63;;
3433;SDS011;1730;41.932;25.548;2023-07-29T14:12:12;5.83;;;1.57;;
3433;SDS011;1730;41.932;25.548;2023-07-29T14:14:40;1.67;;;1.57;;
3433;SDS011;1730;41.932;25.548;2023-07-29T14:17:05;4.00;;;1.63;;
3433;SDS011;1730;41.932;25.548;2023-07-29T14:19:32;2.17;;;2.07;;
3433;SDS011;1730;41.932;25.548;2023-07-29T14:21:57;5.10;;;1.67;;
3433;SDS011;1730;41.932;25.548;2023-07-29T14:24:23;1.90;;;1.60;;
3433;SDS011;1730;41.932;25.548;2023-07-29T14:26:49;1.80;;;1.70;;
3433;SDS011;1730;41.932;25.548;2023-07-29T14:29:14;1.90;;;1.80;;
3433;SDS011;1730;41.932;25.548;2023-07-29T14:31:40;1.60;;;1.50;;
3433;SDS011;1730;41.932;25.548;2023-07-29T14:34:05;1.80;;;1.70;;
3433;SDS011;1730;41.932;25.548;2023-07-29T14:36:31;2.57;;;1.60;;
3433;SDS011;1730;41.932;25.548;2023-07-29T14:38:57;1.80;;;1.70;;
3433;SDS011;1730;41.932;25.548;2023-07-29T14:41:25;1.70;;;1.60;;
3433;SDS011;1730;41.932;25.548;2023-07-29T14:43:52;2.80;;;1.77;;
3433;SDS011;1730;41.932;25.548;2023-07-29T14:46:17;2.10;;;1.90;;
3433;SDS011;1730;41.932;25.548;2023-07-29T14:48:43;1.70;;;1.60;;
3433;SDS011;1730;41.932;25.548;2023-07-29T14:51:08;1.70;;;1.60;;
3433;SDS011;1730;41.932;25.548;2023-07-29T14:53:37;3.00;;;1.60;;
3433;SDS011;1730;41.932;25.548;2023-07-29T14:56:03;5.60;;;2.50;;
3433;SDS011;1730;41.932;25.548;2023-07-29T14:58:29;1.90;;;1.70;;
3433;SDS011;1730;41.932;25.548;2023-07-29T15:00:55;1.67;;;1.57;;
3433;SDS011;1730;41.932;25.548;2023-07-29T15:03:21;2.30;;;2.20;;
3433;SDS011;1730;41.932;25.548;2023-07-29T15:05:46;2.43;;;2.20;;
3433;SDS011;1730;41.932;25.548;2023-07-29T15:08:12;3.17;;;2.10;;
3433;SDS011;1730;41.932;25.548;2023-07-29T15:10:37;2.23;;;2.13;;
3433;SDS011;1730;41.932;25.548;2023-07-29T15:13:03;5.73;;;1.67;;
3433;SDS011;1730;41.932;25.548;2023-07-29T15:15:29;3.30;;;2.10;;
3433;SDS011;1730;41.932;25.548;2023-07-29T15:17:54;2.03;;;1.83;;